sensor_id;sensor_type;location;lat;lon;timestamp;P1;durP1;ratioP1;P2;durP2;ratioP2
14736;SDS011;7459;53.590;10.062;2023-10-13T00:00:28;7.53;;;1.83;;
14736;SDS011;7459;53.590;10.062;2023-10-13T00:02:58;6.18;;;1.35;;
14736;SDS011;7459;53.590;10.062;2023-10-13T00:05:30;8.02;;;1.52;;
14736;SDS011;7459;53.590;10.062;2023-10-13T00:07:57;6.97;;;1.50;;
14736;SDS011;7459;53.590;10.062;2023-10-13T00:10:28;5.93;;;1.17;;
14736;SDS011;7459;53.590;10.062;2023-10-13T00:12:58;9.63;;;1.60;;
14736;SDS011;7459;53.590;10.062;2023-10-13T00:15:50;9.98;;;1.70;;
14736;SDS011;7459;53.590;10.062;2023-10-13T00:18:22;10.63;;;1.67;;
14736;SDS011;7459;53.590;10.062;2023-10-13T00:20:53;8.18;;;2.30;;
14736;SDS011;7459;53.590;10.062;2023-10-13T00:23:22;9.30;;;1.87;;
14736;SDS011;7459;53.590;10.062;2023-10-13T00:25:51;7.80;;;1.63;;
14736;SDS011;7459;53.590;10.062;2023-10-13T00:28:27;8.65;;;2.00;;
14736;SDS011;7459;53.590;10.062;2023-10-13T00:31:00;9.93;;;2.33;;
14736;SDS011;7459;53.590;10.062;2023-10-13T00:33:35;13.45;;;2.00;;
14736;SDS011;7459;53.590;10.062;2023-10-13T00:36:06;8.87;;;1.70;;
14736;SDS011;7459;53.590;10.062;2023-10-13T00:38:34;11.50;;;2.17;;
14736;SDS011;7459;53.590;10.062;2023-10-13T00:41:03;8.18;;;2.55;;
14736;SDS011;7459;53.590;10.062;2023-10-13T00:43:46;11.07;;;2.63;;
14736;SDS011;7459;53.590;10.062;2023-10-13T00:46:32;10.43;;;2.05;;
14736;SDS011;7459;53.590;10.062;2023-10-13T00:49:00;8.33;;;2.10;;
14736;SDS011;7459;53.590;10.062;2023-10-13T00:51:29;7.88;;;2.28;;
14736;SDS011;7459;53.590;10.062;2023-10-13T00:54:12;10.13;;;2.50;;
14736;SDS011;7459;53.590;10.062;2023-10-13T00:56:42;10.63;;;2.10;;
14736;SDS011;7459;53.590;10.062;2023-10-13T00:59:22;9.13;;;2.60;;
14736;SDS011;7459;53.590;10.062;2023-10-13T01:01:50;13.10;;;3.20;;
14736;SDS011;7459;53.590;10.062;2023-10-13T01:04:20;9.20;;;2.47;;
14736;SDS011;7459;53.590;10.062;2023-10-13T01:06:48;9.93;;;2.60;;
14736;SDS011;7459;53.590;10.062;2023-10-13T01:09:14;8.80;;;2.67;;
14736;SDS011;7459;53.590;10.062;2023-10-13T01:11:49;9.15;;;3.03;;
14736;SDS011;7459;53.590;10.062;2023-10-13T01:14:19;13.33;;;3.83;;
14736;SDS011;7459;53.590;10.062;2023-10-13T01:16:46;9.35;;;3.30;;
14736;SDS011;7459;53.590;10.062;2023-10-13T01:19:17;15.27;;;3.40;;
14736;SDS011;7459;53.590;10.062;2023-10-13T01:21:50;15.88;;;3.67;;
14736;SDS011;7459;53.590;10.062;2023-10-13T01:24:22;15.65;;;3.60;;
14736;SDS011;7459;53.590;10.062;2023-10-13T01:26:49;11.27;;;3.33;;
14736;SDS011;7459;53.590;10.062;2023-10-13T01:29:17;15.85;;;3.50;;
14736;SDS011;7459;53.590;10.062;2023-10-13T01:31:44;17.30;;;5.93;;
14736;SDS011;7459;53.590;10.062;2023-10-13T01:34:15;13.23;;;4.13;;
14736;SDS011;7459;53.590;10.062;2023-10-13T01:36:47;17.98;;;4.68;;
14736;SDS011;7459;53.590;10.062;2023-10-13T01:39:18;14.83;;;4.90;;
14736;SDS011;7459;53.590;10.062;2023-10-13T01:41:46;17.67;;;5.07;;
14736;SDS011;7459;53.590;10.062;2023-10-13T01:44:18;13.45;;;4.35;;
14736;SDS011;7459;53.590;10.062;2023-10-13T01:46:45;15.25;;;3.95;;
14736;SDS011;7459;53.590;10.062;2023-10-13T01:49:12;20.02;;;5.20;;
14736;SDS011;7459;53.590;10.062;2023-10-13T01:51:40;16.03;;;4.13;;
14736;SDS011;7459;53.590;10.062;2023-10-13T01:54:07;17.65;;;5.35;;
14736;SDS011;7459;53.590;10.062;2023-10-13T01:56:37;14.20;;;5.28;;
14736;SDS011;7459;53.590;10.062;2023-10-13T01:59:09;19.92;;;5.63;;
14736;SDS011;7459;53.590;10.062;2023-10-13T02:01:36;16.45;;;5.50;;
14736;SDS011;7459;53.590;10.062;2023-10-13T02:04:02;14.33;;;6.03;;
14736;SDS011;7459;53.590;10.062;2023-10-13T02:06:29;17.85;;;5.95;;
14736;SDS011;7459;53.590;10.062;2023-10-13T02:08:59;20.92;;;5.25;;
14736;SDS011;7459;53.590;10.062;2023-10-13T02:11:39;20.05;;;6.45;;
14736;SDS011;7459;53.590;10.062;2023-10-13T02:14:06;18.00;;;6.00;;
14736;SDS011;7459;53.590;10.062;2023-10-13T02:16:32;18.50;;;6.80;;
14736;SDS011;7459;53.590;10.062;2023-10-13T02:18:58;20.30;;;6.10;;
14736;SDS011;7459;53.590;10.062;2023-10-13T02:21:29;20.30;;;6.30;;
14736;SDS011;7459;53.590;10.062;2023-10-13T02:23:57;19.77;;;6.23;;
14736;SDS011;7459;53.590;10.062;2023-10-13T02:26:31;19.77;;;6.85;;
14736;SDS011;7459;53.590;10.062;2023-10-13T02:29:03;18.17;;;5.88;;
14736;SDS011;7459;53.590;10.062;2023-10-13T02:31:35;21.48;;;7.07;;
14736;SDS011;7459;53.590;10.062;2023-10-13T02:34:03;25.17;;;7.05;;
14736;SDS011;7459;53.590;10.062;2023-10-13T02:36:33;21.97;;;6.77;;
14736;SDS011;7459;53.590;10.062;2023-10-13T02:39:11;19.90;;;6.85;;
14736;SDS011;7459;53.590;10.062;2023-10-13T02:41:38;21.17;;;5.88;;
14736;SDS011;7459;53.590;10.062;2023-10-13T02:44:06;20.67;;;7.15;;
14736;SDS011;7459;53.590;10.062;2023-10-13T02:46:35;18.63;;;6.25;;
14736;SDS011;7459;53.590;10.062;2023-10-13T02:49:04;24.07;;;7.37;;
14736;SDS011;7459;53.590;10.062;2023-10-13T02:51:38;17.60;;;6.28;;
14736;SDS011;7459;53.590;10.062;2023-10-13T02:54:08;20.55;;;7.30;;
14736;SDS011;7459;53.590;10.062;2023-10-13T02:56:43;22.85;;;6.88;;
14736;SDS011;7459;53.590;10.062;2023-10-13T02:59:25;22.17;;;7.00;;
14736;SDS011;7459;53.590;10.062;2023-10-13T03:02:27;22.40;;;7.57;;
14736;SDS011;7459;53.590;10.062;2023-10-13T03:04:55;18.45;;;6.53;;
14736;SDS011;7459;53.590;10.062;2023-10-13T03:07:28;22.80;;;7.65;;
14736;SDS011;7459;53.590;10.062;2023-10-13T03:09:54;23.33;;;8.15;;
14736;SDS011;7459;53.590;10.062;2023-10-13T03:12:34;21.55;;;7.13;;
14736;SDS011;7459;53.590;10.062;2023-10-13T03:15:04;19.83;;;7.40;;
14736;SDS011;7459;53.590;10.062;2023-10-13T03:17:37;26.67;;;8.02;;
14736;SDS011;7459;53.590;10.062;2023-10-13T03:20:08;23.13;;;7.25;;
14736;SDS011;7459;53.590;10.062;2023-10-13T03:22:40;20.50;;;7.88;;
14736;SDS011;7459;53.590;10.062;2023-10-13T03:25:12;19.50;;;7.18;;
14736;SDS011;7459;53.590;10.062;2023-10-13T03:27:48;22.30;;;7.33;;
14736;SDS011;7459;53.590;10.062;2023-10-13T03:30:17;17.77;;;7.28;;
14736;SDS011;7459;53.590;10.062;2023-10-13T03:32:47;18.80;;;8.32;;
14736;SDS011;7459;53.590;10.062;2023-10-13T03:35:19;18.60;;;7.32;;
14736;SDS011;7459;53.590;10.062;2023-10-13T03:38:02;24.08;;;8.48;;
14736;SDS011;7459;53.590;10.062;2023-10-13T03:40:28;21.53;;;7.93;;
14736;SDS011;7459;53.590;10.062;2023-10-13T03:42:55;21.02;;;7.15;;
14736;SDS011;7459;53.590;10.062;2023-10-13T03:45:36;18.52;;;6.90;;
14736;SDS011;7459;53.590;10.062;2023-10-13T03:48:08;18.65;;;6.45;;
14736;SDS011;7459;53.590;10.062;2023-10-13T03:50:36;14.63;;;5.87;;
14736;SDS011;7459;53.590;10.062;2023-10-13T03:53:11;14.73;;;5.97;;
14736;SDS011;7459;53.590;10.062;2023-10-13T03:55:38;15.90;;;5.95;;
14736;SDS011;7459;53.590;10.062;2023-10-13T03:58:04;13.50;;;4.70;;
14736;SDS011;7459;53.590;10.062;2023-10-13T04:00:30;13.20;;;4.63;;
14736;SDS011;7459;53.590;10.062;2023-10-13T04:02:56;13.48;;;5.15;;
14736;SDS011;7459;53.590;10.062;2023-10-13T04:05:29;14.73;;;4.82;;
14736;SDS011;7459;53.590;10.062;2023-10-13T04:08:03;11.43;;;5.05;;
14736;SDS011;7459;53.590;10.062;2023-10-13T04:10:54;12.88;;;4.63;;
14736;SDS011;7459;53.590;10.062;2023-10-13T04:13:21;12.60;;;4.67;;
14736;SDS011;7459;53.590;10.062;2023-10-13T04:16:22;12.23;;;4.88;;
14736;SDS011;7459;53.590;10.062;2023-10-13T04:18:51;11.68;;;5.53;;
14736;SDS011;7459;53.590;10.062;2023-10-13T04:21:19;14.07;;;5.73;;
14736;SDS011;7459;53.590;10.062;2023-10-13T04:24:06;12.57;;;5.57;;
14736;SDS011;7459;53.590;10.062;2023-10-13T04:26:42;13.15;;;5.75;;
14736;SDS011;7459;53.590;10.062;2023-10-13T04:29:45;14.15;;;6.25;;
14736;SDS011;7459;53.590;10.062;2023-10-13T04:32:31;14.40;;;5.97;;
14736;SDS011;7459;53.590;10.062;2023-10-13T04:35:28;13.50;;;6.60;;
14736;SDS011;7459;53.590;10.062;2023-10-13T04:38:00;14.68;;;6.57;;
14736;SDS011;7459;53.590;10.062;2023-10-13T04:40:26;15.90;;;6.70;;
14736;SDS011;7459;53.590;10.062;2023-10-13T04:43:00;16.20;;;7.35;;
14736;SDS011;7459;53.590;10.062;2023-10-13T04:45:41;16.63;;;6.97;;
14736;SDS011;7459;53.590;10.062;2023-10-13T04:48:18;15.27;;;6.50;;
14736;SDS011;7459;53.590;10.062;2023-10-13T04:50:47;15.82;;;6.55;;
14736;SDS011;7459;53.590;10.062;2023-10-13T04:53:23;15.27;;;7.13;;
14736;SDS011;7459;53.590;10.062;2023-10-13T04:56:20;16.65;;;7.35;;
14736;SDS011;7459;53.590;10.062;2023-10-13T04:59:04;17.67;;;8.00;;
14736;SDS011;7459;53.590;10.062;2023-10-13T05:01:48;17.50;;;7.10;;
14736;SDS011;7459;53.590;10.062;2023-10-13T05:04:34;18.50;;;7.68;;
14736;SDS011;7459;53.590;10.062;2023-10-13T05:07:04;17.52;;;7.50;;
14736;SDS011;7459;53.590;10.062;2023-10-13T05:09:48;19.77;;;8.52;;
14736;SDS011;7459;53.590;10.062;2023-10-13T05:12:33;21.60;;;8.98;;
14736;SDS011;7459;53.590;10.062;2023-10-13T05:15:17;21.03;;;8.87;;
14736;SDS011;7459;53.590;10.062;2023-10-13T05:18:02;23.50;;;8.90;;
14736;SDS011;7459;53.590;10.062;2023-10-13T05:20:48;22.95;;;9.80;;
14736;SDS011;7459;53.590;10.062;2023-10-13T05:23:32;20.92;;;10.05;;
14736;SDS011;7459;53.590;10.062;2023-10-13T05:26:16;19.58;;;9.43;;
14736;SDS011;7459;53.590;10.062;2023-10-13T05:29:00;25.10;;;11.40;;
14736;SDS011;7459;53.590;10.062;2023-10-13T05:31:44;25.48;;;11.43;;
14736;SDS011;7459;53.590;10.062;2023-10-13T05:34:28;28.25;;;12.25;;
14736;SDS011;7459;53.590;10.062;2023-10-13T05:37:12;26.42;;;11.93;;
14736;SDS011;7459;53.590;10.062;2023-10-13T05:39:57;23.70;;;12.05;;
14736;SDS011;7459;53.590;10.062;2023-10-13T05:42:41;28.40;;;12.83;;
14736;SDS011;7459;53.590;10.062;2023-10-13T05:45:25;25.27;;;12.52;;
14736;SDS011;7459;53.590;10.062;2023-10-13T05:48:09;29.73;;;13.90;;
14736;SDS011;7459;53.590;10.062;2023-10-13T05:50:40;30.98;;;13.82;;
14736;SDS011;7459;53.590;10.062;2023-10-13T05:53:22;33.03;;;13.82;;
14736;SDS011;7459;53.590;10.062;2023-10-13T05:56:06;28.50;;;13.53;;
14736;SDS011;7459;53.590;10.062;2023-10-13T05:58:50;29.85;;;14.75;;
14736;SDS011;7459;53.590;10.062;2023-10-13T06:01:35;34.63;;;14.52;;
14736;SDS011;7459;53.590;10.062;2023-10-13T06:04:19;29.00;;;13.85;;
14736;SDS011;7459;53.590;10.062;2023-10-13T06:07:03;31.35;;;15.32;;
14736;SDS011;7459;53.590;10.062;2023-10-13T06:09:47;35.40;;;16.60;;
14736;SDS011;7459;53.590;10.062;2023-10-13T06:12:31;35.10;;;16.33;;
14736;SDS011;7459;53.590;10.062;2023-10-13T06:15:15;34.25;;;15.60;;
14736;SDS011;7459;53.590;10.062;2023-10-13T06:17:59;35.15;;;16.60;;
14736;SDS011;7459;53.590;10.062;2023-10-13T06:20:44;33.63;;;16.48;;
14736;SDS011;7459;53.590;10.062;2023-10-13T06:23:28;33.83;;;15.93;;
14736;SDS011;7459;53.590;10.062;2023-10-13T06:26:12;32.97;;;16.77;;
14736;SDS011;7459;53.590;10.062;2023-10-13T06:28:56;33.58;;;16.83;;
14736;SDS011;7459;53.590;10.062;2023-10-13T06:31:21;32.63;;;14.97;;
14736;SDS011;7459;53.590;10.062;2023-10-13T06:33:47;34.05;;;15.70;;
14736;SDS011;7459;53.590;10.062;2023-10-13T06:36:13;36.22;;;17.25;;
14736;SDS011;7459;53.590;10.062;2023-10-13T06:38:39;33.10;;;15.87;;
14736;SDS011;7459;53.590;10.062;2023-10-13T06:41:06;33.50;;;16.48;;
14736;SDS011;7459;53.590;10.062;2023-10-13T06:43:33;31.13;;;16.17;;
14736;SDS011;7459;53.590;10.062;2023-10-13T06:46:08;32.47;;;16.40;;
14736;SDS011;7459;53.590;10.062;2023-10-13T06:48:48;33.30;;;16.85;;
14736;SDS011;7459;53.590;10.062;2023-10-13T06:51:18;34.87;;;17.73;;
14736;SDS011;7459;53.590;10.062;2023-10-13T06:53:48;33.83;;;17.20;;
14736;SDS011;7459;53.590;10.062;2023-10-13T06:56:14;34.80;;;15.80;;
14736;SDS011;7459;53.590;10.062;2023-10-13T06:58:47;36.33;;;18.60;;
14736;SDS011;7459;53.590;10.062;2023-10-13T07:01:14;30.63;;;15.85;;
14736;SDS011;7459;53.590;10.062;2023-10-13T07:03:44;35.90;;;16.40;;
14736;SDS011;7459;53.590;10.062;2023-10-13T07:06:17;32.78;;;18.02;;
14736;SDS011;7459;53.590;10.062;2023-10-13T07:08:45;36.10;;;16.30;;
14736;SDS011;7459;53.590;10.062;2023-10-13T07:11:17;39.90;;;17.63;;
14736;SDS011;7459;53.590;10.062;2023-10-13T07:13:59;32.53;;;16.50;;
14736;SDS011;7459;53.590;10.062;2023-10-13T07:16:55;32.20;;;16.17;;
14736;SDS011;7459;53.590;10.062;2023-10-13T07:19:28;32.17;;;16.60;;
14736;SDS011;7459;53.590;10.062;2023-10-13T07:21:57;38.33;;;17.88;;
14736;SDS011;7459;53.590;10.062;2023-10-13T07:24:27;36.13;;;17.40;;
14736;SDS011;7459;53.590;10.062;2023-10-13T07:26:59;35.00;;;17.83;;
14736;SDS011;7459;53.590;10.062;2023-10-13T07:29:30;32.03;;;17.43;;
14736;SDS011;7459;53.590;10.062;2023-10-13T07:31:55;31.20;;;16.58;;
14736;SDS011;7459;53.590;10.062;2023-10-13T07:34:21;33.00;;;17.17;;
14736;SDS011;7459;53.590;10.062;2023-10-13T07:36:51;31.52;;;16.85;;
14736;SDS011;7459;53.590;10.062;2023-10-13T07:39:24;32.55;;;17.58;;
14736;SDS011;7459;53.590;10.062;2023-10-13T07:41:58;33.08;;;17.52;;
14736;SDS011;7459;53.590;10.062;2023-10-13T07:44:31;32.25;;;17.42;;
14736;SDS011;7459;53.590;10.062;2023-10-13T07:46:58;32.60;;;17.13;;
14736;SDS011;7459;53.590;10.062;2023-10-13T07:49:28;32.92;;;16.98;;
14736;SDS011;7459;53.590;10.062;2023-10-13T07:52:05;30.08;;;16.17;;
14736;SDS011;7459;53.590;10.062;2023-10-13T07:54:46;32.33;;;16.33;;
14736;SDS011;7459;53.590;10.062;2023-10-13T07:57:14;31.33;;;15.88;;
14736;SDS011;7459;53.590;10.062;2023-10-13T07:59:41;28.83;;;14.93;;
14736;SDS011;7459;53.590;10.062;2023-10-13T08:02:13;29.83;;;13.80;;
14736;SDS011;7459;53.590;10.062;2023-10-13T08:04:58;29.75;;;15.65;;
14736;SDS011;7459;53.590;10.062;2023-10-13T08:07:24;28.63;;;14.05;;
14736;SDS011;7459;53.590;10.062;2023-10-13T08:09:53;28.50;;;14.18;;
14736;SDS011;7459;53.590;10.062;2023-10-13T08:12:19;25.83;;;12.77;;
14736;SDS011;7459;53.590;10.062;2023-10-13T08:14:48;24.30;;;12.02;;
14736;SDS011;7459;53.590;10.062;2023-10-13T08:17:13;23.02;;;12.30;;
14736;SDS011;7459;53.590;10.062;2023-10-13T08:19:40;27.25;;;13.25;;
14736;SDS011;7459;53.590;10.062;2023-10-13T08:22:09;20.17;;;11.73;;
14736;SDS011;7459;53.590;10.062;2023-10-13T08:24:42;20.85;;;10.57;;
14736;SDS011;7459;53.590;10.062;2023-10-13T08:27:08;19.98;;;10.88;;
14736;SDS011;7459;53.590;10.062;2023-10-13T08:29:49;18.63;;;9.75;;
14736;SDS011;7459;53.590;10.062;2023-10-13T08:32:20;20.05;;;11.32;;
14736;SDS011;7459;53.590;10.062;2023-10-13T08:34:51;19.53;;;10.20;;
14736;SDS011;7459;53.590;10.062;2023-10-13T08:37:22;19.00;;;10.80;;
14736;SDS011;7459;53.590;10.062;2023-10-13T08:39:57;19.55;;;10.13;;
14736;SDS011;7459;53.590;10.062;2023-10-13T08:45:07;19.15;;;10.15;;
14736;SDS011;7459;53.590;10.062;2023-10-13T08:47:53;17.07;;;9.77;;
14736;SDS011;7459;53.590;10.062;2023-10-13T08:53:19;18.25;;;8.52;;
14736;SDS011;7459;53.590;10.062;2023-10-13T09:01:28;15.30;;;8.20;;
14736;SDS011;7459;53.590;10.062;2023-10-13T09:04:13;14.45;;;8.00;;
14736;SDS011;7459;53.590;10.062;2023-10-13T09:06:50;13.40;;;7.80;;
14736;SDS011;7459;53.590;10.062;2023-10-13T09:12:14;11.63;;;6.57;;
14736;SDS011;7459;53.590;10.062;2023-10-13T09:15:10;14.13;;;7.97;;
14736;SDS011;7459;53.590;10.062;2023-10-13T09:17:48;11.73;;;6.10;;
14736;SDS011;7459;53.590;10.062;2023-10-13T09:20:37;11.93;;;6.13;;
14736;SDS011;7459;53.590;10.062;2023-10-13T09:23:09;11.35;;;6.07;;
14736;SDS011;7459;53.590;10.062;2023-10-13T09:25:50;9.60;;;5.65;;
14736;SDS011;7459;53.590;10.062;2023-10-13T09:28:24;13.47;;;5.60;;
14736;SDS011;7459;53.590;10.062;2023-10-13T09:30:54;11.57;;;5.40;;
14736;SDS011;7459;53.590;10.062;2023-10-13T09:33:27;10.90;;;5.60;;
14736;SDS011;7459;53.590;10.062;2023-10-13T09:36:15;11.38;;;5.57;;
14736;SDS011;7459;53.590;10.062;2023-10-13T09:38:42;11.00;;;5.75;;
14736;SDS011;7459;53.590;10.062;2023-10-13T09:41:36;11.30;;;5.67;;
14736;SDS011;7459;53.590;10.062;2023-10-13T09:44:05;16.42;;;6.32;;
14736;SDS011;7459;53.590;10.062;2023-10-13T09:46:33;12.57;;;6.38;;
14736;SDS011;7459;53.590;10.062;2023-10-13T09:49:16;13.45;;;5.30;;
14736;SDS011;7459;53.590;10.062;2023-10-13T09:52:09;11.43;;;5.97;;
14736;SDS011;7459;53.590;10.062;2023-10-13T09:54:44;11.00;;;4.87;;
14736;SDS011;7459;53.590;10.062;2023-10-13T09:57:24;11.15;;;6.82;;
14736;SDS011;7459;53.590;10.062;2023-10-13T10:00:06;14.13;;;6.00;;
14736;SDS011;7459;53.590;10.062;2023-10-13T10:02:56;15.80;;;5.47;;
14736;SDS011;7459;53.590;10.062;2023-10-13T10:05:24;12.77;;;6.18;;
14736;SDS011;7459;53.590;10.062;2023-10-13T10:07:54;14.37;;;5.37;;
14736;SDS011;7459;53.590;10.062;2023-10-13T10:10:22;11.23;;;4.45;;
14736;SDS011;7459;53.590;10.062;2023-10-13T10:13:03;12.30;;;5.43;;
14736;SDS011;7459;53.590;10.062;2023-10-13T10:15:43;14.93;;;5.13;;
14736;SDS011;7459;53.590;10.062;2023-10-13T10:18:22;13.98;;;5.82;;
14736;SDS011;7459;53.590;10.062;2023-10-13T10:20:50;13.50;;;5.47;;
14736;SDS011;7459;53.590;10.062;2023-10-13T10:23:27;12.25;;;5.00;;
14736;SDS011;7459;53.590;10.062;2023-10-13T10:26:10;11.32;;;5.18;;
14736;SDS011;7459;53.590;10.062;2023-10-13T10:28:45;12.13;;;4.90;;
14736;SDS011;7459;53.590;10.062;2023-10-13T10:31:12;9.80;;;4.75;;
14736;SDS011;7459;53.590;10.062;2023-10-13T10:33:41;11.23;;;4.73;;
14736;SDS011;7459;53.590;10.062;2023-10-13T10:36:07;12.05;;;4.82;;
14736;SDS011;7459;53.590;10.062;2023-10-13T10:38:50;18.35;;;6.07;;
14736;SDS011;7459;53.590;10.062;2023-10-13T10:41:24;14.15;;;5.93;;
14736;SDS011;7459;53.590;10.062;2023-10-13T10:44:18;11.38;;;5.00;;
14736;SDS011;7459;53.590;10.062;2023-10-13T10:47:11;12.57;;;5.63;;
14736;SDS011;7459;53.590;10.062;2023-10-13T10:50:01;12.27;;;5.03;;
14736;SDS011;7459;53.590;10.062;2023-10-13T10:52:44;12.20;;;5.00;;
14736;SDS011;7459;53.590;10.062;2023-10-13T10:55:11;13.40;;;5.68;;
14736;SDS011;7459;53.590;10.062;2023-10-13T10:57:39;13.75;;;4.85;;
14736;SDS011;7459;53.590;10.062;2023-10-13T11:00:17;12.60;;;5.93;;
14736;SDS011;7459;53.590;10.062;2023-10-13T11:02:53;11.90;;;5.20;;
14736;SDS011;7459;53.590;10.062;2023-10-13T11:05:25;14.07;;;4.50;;
14736;SDS011;7459;53.590;10.062;2023-10-13T11:07:57;12.80;;;5.47;;
14736;SDS011;7459;53.590;10.062;2023-10-13T11:10:24;11.25;;;4.95;;
14736;SDS011;7459;53.590;10.062;2023-10-13T11:12:56;13.83;;;5.80;;
14736;SDS011;7459;53.590;10.062;2023-10-13T11:15:43;13.23;;;5.20;;
14736;SDS011;7459;53.590;10.062;2023-10-13T11:18:09;15.52;;;6.28;;
14736;SDS011;7459;53.590;10.062;2023-10-13T11:20:45;13.43;;;5.45;;
14736;SDS011;7459;53.590;10.062;2023-10-13T11:23:15;14.07;;;6.22;;
14736;SDS011;7459;53.590;10.062;2023-10-13T11:25:41;14.93;;;5.97;;
14736;SDS011;7459;53.590;10.062;2023-10-13T11:28:13;12.10;;;6.35;;
14736;SDS011;7459;53.590;10.062;2023-10-13T11:30:45;13.82;;;6.43;;
14736;SDS011;7459;53.590;10.062;2023-10-13T11:33:15;12.88;;;6.05;;
14736;SDS011;7459;53.590;10.062;2023-10-13T11:35:49;14.33;;;6.10;;
14736;SDS011;7459;53.590;10.062;2023-10-13T11:38:17;13.02;;;6.95;;
14736;SDS011;7459;53.590;10.062;2023-10-13T11:40:59;14.80;;;5.63;;
14736;SDS011;7459;53.590;10.062;2023-10-13T11:43:30;13.68;;;6.30;;
14736;SDS011;7459;53.590;10.062;2023-10-13T11:46:11;14.52;;;6.28;;
14736;SDS011;7459;53.590;10.062;2023-10-13T11:48:40;12.97;;;5.37;;
14736;SDS011;7459;53.590;10.062;2023-10-13T11:51:08;10.88;;;5.38;;
14736;SDS011;7459;53.590;10.062;2023-10-13T11:53:42;14.85;;;5.40;;
14736;SDS011;7459;53.590;10.062;2023-10-13T11:56:17;12.05;;;5.82;;
14736;SDS011;7459;53.590;10.062;2023-10-13T11:58:46;11.85;;;5.95;;
14736;SDS011;7459;53.590;10.062;2023-10-13T12:01:13;18.70;;;5.50;;
14736;SDS011;7459;53.590;10.062;2023-10-13T12:03:40;17.08;;;5.88;;
14736;SDS011;7459;53.590;10.062;2023-10-13T12:06:24;13.88;;;5.43;;
14736;SDS011;7459;53.590;10.062;2023-10-13T12:09:11;12.35;;;4.95;;
14736;SDS011;7459;53.590;10.062;2023-10-13T12:11:47;15.65;;;4.82;;
14736;SDS011;7459;53.590;10.062;2023-10-13T12:14:19;13.87;;;5.60;;
14736;SDS011;7459;53.590;10.062;2023-10-13T12:17:17;9.70;;;5.65;;
14736;SDS011;7459;53.590;10.062;2023-10-13T12:19:51;8.98;;;4.30;;
14736;SDS011;7459;53.590;10.062;2023-10-13T12:22:17;18.08;;;4.57;;
14736;SDS011;7459;53.590;10.062;2023-10-13T12:24:51;12.90;;;4.57;;
14736;SDS011;7459;53.590;10.062;2023-10-13T12:27:20;12.03;;;3.93;;
14736;SDS011;7459;53.590;10.062;2023-10-13T12:29:52;12.55;;;4.95;;
14736;SDS011;7459;53.590;10.062;2023-10-13T12:32:21;14.55;;;4.57;;
14736;SDS011;7459;53.590;10.062;2023-10-13T12:34:55;10.45;;;4.50;;
14736;SDS011;7459;53.590;10.062;2023-10-13T12:37:32;11.57;;;4.00;;
14736;SDS011;7459;53.590;10.062;2023-10-13T12:40:01;13.23;;;4.60;;
14736;SDS011;7459;53.590;10.062;2023-10-13T12:42:47;11.18;;;3.60;;
14736;SDS011;7459;53.590;10.062;2023-10-13T12:45:31;15.43;;;4.40;;
14736;SDS011;7459;53.590;10.062;2023-10-13T12:48:15;11.60;;;4.35;;
14736;SDS011;7459;53.590;10.062;2023-10-13T12:51:01;11.73;;;4.15;;
14736;SDS011;7459;53.590;10.062;2023-10-13T12:53:44;10.63;;;3.57;;
14736;SDS011;7459;53.590;10.062;2023-10-13T12:56:17;10.80;;;3.85;;
14736;SDS011;7459;53.590;10.062;2023-10-13T12:58:51;12.60;;;3.50;;
14736;SDS011;7459;53.590;10.062;2023-10-13T13:01:18;12.00;;;3.67;;
14736;SDS011;7459;53.590;10.062;2023-10-13T13:03:48;12.48;;;3.50;;
14736;SDS011;7459;53.590;10.062;2023-10-13T13:06:18;14.67;;;4.47;;
14736;SDS011;7459;53.590;10.062;2023-10-13T13:08:54;14.20;;;3.70;;
14736;SDS011;7459;53.590;10.062;2023-10-13T13:11:25;12.82;;;3.85;;
14736;SDS011;7459;53.590;10.062;2023-10-13T13:13:54;14.20;;;3.85;;
14736;SDS011;7459;53.590;10.062;2023-10-13T13:16:20;14.77;;;4.03;;
14736;SDS011;7459;53.590;10.062;2023-10-13T13:18:49;14.27;;;4.43;;
14736;SDS011;7459;53.590;10.062;2023-10-13T13:21:15;11.18;;;3.83;;
14736;SDS011;7459;53.590;10.062;2023-10-13T13:23:52;14.40;;;4.68;;
14736;SDS011;7459;53.590;10.062;2023-10-13T13:26:21;17.00;;;4.57;;
14736;SDS011;7459;53.590;10.062;2023-10-13T13:28:48;10.23;;;3.67;;
14736;SDS011;7459;53.590;10.062;2023-10-13T13:31:20;10.55;;;4.40;;
14736;SDS011;7459;53.590;10.062;2023-10-13T13:33:54;14.82;;;4.40;;
14736;SDS011;7459;53.590;10.062;2023-10-13T13:36:21;11.60;;;4.15;;
14736;SDS011;7459;53.590;10.062;2023-10-13T13:38:47;11.18;;;4.25;;
14736;SDS011;7459;53.590;10.062;2023-10-13T13:41:19;12.90;;;3.97;;
14736;SDS011;7459;53.590;10.062;2023-10-13T13:43:47;10.38;;;3.85;;
14736;SDS011;7459;53.590;10.062;2023-10-13T13:46:17;10.18;;;3.80;;
14736;SDS011;7459;53.590;10.062;2023-10-13T13:48:44;11.00;;;4.45;;
14736;SDS011;7459;53.590;10.062;2023-10-13T13:51:13;12.77;;;4.35;;
14736;SDS011;7459;53.590;10.062;2023-10-13T13:53:45;11.93;;;4.00;;
14736;SDS011;7459;53.590;10.062;2023-10-13T13:56:13;12.38;;;4.05;;
14736;SDS011;7459;53.590;10.062;2023-10-13T13:58:47;9.95;;;3.95;;
14736;SDS011;7459;53.590;10.062;2023-10-13T14:01:17;11.98;;;3.97;;
14736;SDS011;7459;53.590;10.062;2023-10-13T14:03:44;12.90;;;4.05;;
14736;SDS011;7459;53.590;10.062;2023-10-13T14:06:12;10.80;;;3.60;;
14736;SDS011;7459;53.590;10.062;2023-10-13T14:08:54;11.88;;;4.30;;
14736;SDS011;7459;53.590;10.062;2023-10-13T14:11:22;15.80;;;4.47;;
14736;SDS011;7459;53.590;10.062;2023-10-13T14:14:08;13.32;;;4.68;;
14736;SDS011;7459;53.590;10.062;2023-10-13T14:16:38;11.82;;;3.97;;
14736;SDS011;7459;53.590;10.062;2023-10-13T14:19:09;12.67;;;4.53;;
14736;SDS011;7459;53.590;10.062;2023-10-13T14:21:36;13.48;;;4.75;;
14736;SDS011;7459;53.590;10.062;2023-10-13T14:24:03;11.65;;;4.13;;
14736;SDS011;7459;53.590;10.062;2023-10-13T14:26:37;10.45;;;3.63;;
14736;SDS011;7459;53.590;10.062;2023-10-13T14:29:04;12.20;;;4.43;;
14736;SDS011;7459;53.590;10.062;2023-10-13T14:31:33;13.40;;;3.77;;
14736;SDS011;7459;53.590;10.062;2023-10-13T14:34:02;15.52;;;4.25;;
14736;SDS011;7459;53.590;10.062;2023-10-13T14:36:28;14.90;;;4.70;;
14736;SDS011;7459;53.590;10.062;2023-10-13T14:38:54;13.10;;;3.63;;
14736;SDS011;7459;53.590;10.062;2023-10-13T14:41:21;11.25;;;4.15;;
14736;SDS011;7459;53.590;10.062;2023-10-13T14:43:47;17.53;;;4.17;;
14736;SDS011;7459;53.590;10.062;2023-10-13T14:46:19;9.30;;;3.92;;
14736;SDS011;7459;53.590;10.062;2023-10-13T14:48:48;14.35;;;4.15;;
14736;SDS011;7459;53.590;10.062;2023-10-13T14:51:17;16.25;;;5.35;;
14736;SDS011;7459;53.590;10.062;2023-10-13T14:53:46;14.50;;;3.63;;
14736;SDS011;7459;53.590;10.062;2023-10-13T14:56:16;12.95;;;4.10;;
14736;SDS011;7459;53.590;10.062;2023-10-13T14:58:42;11.18;;;4.28;;
14736;SDS011;7459;53.590;10.062;2023-10-13T15:01:16;12.77;;;4.17;;
14736;SDS011;7459;53.590;10.062;2023-10-13T15:03:47;12.95;;;4.70;;
14736;SDS011;7459;53.590;10.062;2023-10-13T15:08:45;12.70;;;4.95;;
14736;SDS011;7459;53.590;10.062;2023-10-13T15:11:12;17.27;;;4.50;;
14736;SDS011;7459;53.590;10.062;2023-10-13T15:13:41;13.87;;;4.50;;
14736;SDS011;7459;53.590;10.062;2023-10-13T15:16:14;13.07;;;5.38;;
14736;SDS011;7459;53.590;10.062;2023-10-13T15:18:41;13.07;;;4.88;;
14736;SDS011;7459;53.590;10.062;2023-10-13T15:21:18;11.68;;;4.53;;
14736;SDS011;7459;53.590;10.062;2023-10-13T15:23:49;17.67;;;5.78;;
14736;SDS011;7459;53.590;10.062;2023-10-13T15:26:16;13.47;;;4.40;;
14736;SDS011;7459;53.590;10.062;2023-10-13T15:28:48;12.07;;;4.78;;